Port Hueneme, California
Current Conditions -  °F | °C
As of 7:51 AM on Wednesday 22 Oct 2014 (Local Time) from KOXR Reporting Station
Clear Clear  
Wind Chill: 17°   Ceiling: Unl
Heat Index: 17°   Visibility: 10mi
Dew Point:   Wind: 8mph
Humidity: 46%   Direction: 60°ENE
Pressure: 29.93"   Gusts: NA
Location:  34.15°N, 119.19°W
Report Text: KOXR 221451Z 06007KT 10SM CLR 17/05 A2993 RMK AO2 SLP133 T01670050 53018
Loading
Personal Weather Stations






























Interactive Weather Map
Tropical Storm Tracking
New forecast layout! Learn more

10-Day Weather Forecast

Advertisements
Track Severe Weather on mobile